createdAt,value
2018-12-21T00:00:01.251Z,55.80
2018-12-21T00:02:30.632Z,58.23
2018-12-21T00:05:00.114Z,55.57
2018-12-21T00:07:29.535Z,50.87
2018-12-21T00:09:58.895Z,63.37
2018-12-21T00:12:28.270Z,55.80
2018-12-21T00:14:57.820Z,63.30
2018-12-21T00:17:34.469Z,69.07
2018-12-21T00:19:58.824Z,65.27
2018-12-21T00:22:28.159Z,59.43
2018-12-21T00:24:57.546Z,61.17
2018-12-21T00:27:26.977Z,65.50
2018-12-21T00:29:56.524Z,64.17
2018-12-21T00:32:30.952Z,65.33
2018-12-21T00:35:05.444Z,50.87
2018-12-21T00:37:40.331Z,61.20
2018-12-21T00:40:15.202Z,63.87
2018-12-21T00:43:51.426Z,52.20
2018-12-21T00:46:24.955Z,52.37
2018-12-21T00:48:54.651Z,60.33
2018-12-21T00:51:30.219Z,64.70
2018-12-21T00:53:55.657Z,63.57
2018-12-21T00:56:25.107Z,62.00
2018-12-21T00:58:54.626Z,67.50
2018-12-21T01:01:24.335Z,62.43
2018-12-21T01:03:53.884Z,65.90
2018-12-21T01:06:23.318Z,67.67
2018-12-21T01:08:52.856Z,69.23
2018-12-21T01:11:22.621Z,71.13
2018-12-21T01:13:52.072Z,62.67
2018-12-21T01:16:21.511Z,55.63
2018-12-21T01:18:51.043Z,48.03
2018-12-21T01:21:20.459Z,51.60
2018-12-21T01:23:50.223Z,52.57
2018-12-21T01:26:19.611Z,51.40
2018-12-21T01:28:48.944Z,54.03
2018-12-21T01:31:18.491Z,63.10
2018-12-21T01:33:48.004Z,53.10
2018-12-21T01:36:17.443Z,59.03
2018-12-21T01:38:46.939Z,50.47
2018-12-21T01:41:16.380Z,63.33
2018-12-21T01:43:45.922Z,65.07
2018-12-21T01:46:15.418Z,64.93
2018-12-21T01:48:44.760Z,75.30
2018-12-21T01:51:14.264Z,73.53
2018-12-21T01:53:43.594Z,73.53
2018-12-21T01:56:13.112Z,80.20
2018-12-21T01:58:42.323Z,81.97
2018-12-21T02:01:11.835Z,99.80
2018-12-21T02:03:41.274Z,89.27
2018-12-21T02:06:10.849Z,96.53
2018-12-21T02:08:40.447Z,100.80
2018-12-21T02:11:09.961Z,101.80
2018-12-21T02:13:39.495Z,115.03
2018-12-21T02:16:08.895Z,119.37
2018-12-21T02:18:38.308Z,124.23
2018-12-21T02:21:07.874Z,146.13
2018-12-21T02:23:37.274Z,118.53
2018-12-21T02:26:06.832Z,136.10
2018-12-21T02:28:36.268Z,150.73
2018-12-21T02:31:05.707Z,111.77
2018-12-21T02:33:35.157Z,113.07
2018-12-21T02:36:04.559Z,103.47
2018-12-21T02:38:33.995Z,115.23
2018-12-21T02:41:03.810Z,174.93
2018-12-21T02:43:33.346Z,150.13
2018-12-21T02:46:02.838Z,138.37
2018-12-21T02:48:32.425Z,136.97
2018-12-21T02:51:01.920Z,142.13
2018-12-21T02:53:31.462Z,144.97
2018-12-21T02:56:00.968Z,154.27
2018-12-21T02:58:30.507Z,140.73
2018-12-21T03:00:59.974Z,147.80
2018-12-21T03:03:29.655Z,141.37
2018-12-21T03:05:59.164Z,161.37
2018-12-21T03:08:28.687Z,148.80
2018-12-21T03:10:58.172Z,148.20
2018-12-21T03:13:27.677Z,148.47
2018-12-21T03:15:57.100Z,133.73
2018-12-21T03:18:26.606Z,115.90
2018-12-21T03:20:56.053Z,137.10
2018-12-21T03:23:25.748Z,143.37
2018-12-21T03:25:55.304Z,131.53
2018-12-21T03:28:24.844Z,143.80
2018-12-21T03:30:54.313Z,148.90
2018-12-21T03:33:23.815Z,129.57
2018-12-21T03:35:53.357Z,118.10
2018-12-21T03:38:22.843Z,120.90
2018-12-21T03:40:52.273Z,126.33
2018-12-21T03:43:21.767Z,118.33
2018-12-21T03:45:51.173Z,130.00
2018-12-21T03:48:20.632Z,101.20
2018-12-21T03:50:50.103Z,114.17
2018-12-21T03:53:19.646Z,128.63
2018-12-21T03:55:49.196Z,103.40
2018-12-21T03:58:18.674Z,115.10
2018-12-21T04:00:48.054Z,97.93
2018-12-21T04:03:17.528Z,94.13
2018-12-21T04:05:46.897Z,86.80
2018-12-21T04:08:16.404Z,106.50
2018-12-21T04:10:45.883Z,100.53
2018-12-21T04:13:15.476Z,94.33
2018-12-21T04:15:45.405Z,83.83
2018-12-21T04:18:14.748Z,85.57
2018-12-21T04:20:44.297Z,92.40
2018-12-21T04:23:13.903Z,95.23
2018-12-21T04:25:43.331Z,88.10
2018-12-21T04:28:12.828Z,79.47
2018-12-21T04:30:42.276Z,80.37
2018-12-21T04:33:11.707Z,73.73
2018-12-21T04:35:41.261Z,80.93
2018-12-21T04:38:10.657Z,82.83
2018-12-21T04:40:40.153Z,89.27
2018-12-21T04:43:09.587Z,79.27
2018-12-21T04:45:39.134Z,84.60
2018-12-21T04:48:08.642Z,82.57
2018-12-21T04:50:38.169Z,68.97
2018-12-21T04:53:07.647Z,82.57
2018-12-21T04:55:37.160Z,91.40
2018-12-21T04:58:06.656Z,88.67
2018-12-21T05:00:36.146Z,89.33
2018-12-21T05:03:05.836Z,81.63
2018-12-21T05:05:35.277Z,80.37
2018-12-21T05:08:04.713Z,74.67
2018-12-21T05:10:34.182Z,65.40
2018-12-21T05:13:03.689Z,78.83
2018-12-21T05:15:33.235Z,73.13
2018-12-21T05:18:05.725Z,72.13
2018-12-21T05:20:35.130Z,81.33
2018-12-21T05:23:04.799Z,93.10
2018-12-21T05:25:34.390Z,69.03
2018-12-21T05:28:04.149Z,59.80
2018-12-21T05:30:33.564Z,87.93
2018-12-21T05:33:02.951Z,85.73
2018-12-21T05:35:34.016Z,89.33
2018-12-21T05:38:03.581Z,81.97
2018-12-21T05:40:33.588Z,67.90
2018-12-21T05:43:03.131Z,87.67
2018-12-21T05:45:32.571Z,79.70
2018-12-21T05:48:02.076Z,82.67
2018-12-21T05:50:31.600Z,89.50
2018-12-21T05:53:01.161Z,81.97
2018-12-21T05:55:30.801Z,101.37
2018-12-21T05:58:00.398Z,94.83
2018-12-21T06:00:29.939Z,89.67
2018-12-21T06:02:59.433Z,80.57
2018-12-21T06:05:28.995Z,69.43
2018-12-21T06:07:58.660Z,73.43
2018-12-21T06:10:28.240Z,66.37
2018-12-21T06:12:57.753Z,63.67
2018-12-21T06:15:27.223Z,69.33
2018-12-21T06:17:56.781Z,64.03
2018-12-21T06:20:26.282Z,63.43
2018-12-21T06:22:55.682Z,60.33
2018-12-21T06:25:25.134Z,62.87
2018-12-21T06:27:54.837Z,56.93
2018-12-21T06:30:24.271Z,50.13
2018-12-21T06:32:53.703Z,53.63
2018-12-21T06:35:23.111Z,62.63
2018-12-21T06:37:52.504Z,54.67
2018-12-21T06:40:21.867Z,57.63
2018-12-21T06:42:51.485Z,55.17
2018-12-21T06:45:20.987Z,60.90
2018-12-21T06:47:50.512Z,59.23
2018-12-21T06:50:20.032Z,58.67
2018-12-21T06:52:49.477Z,60.50
2018-12-21T06:55:19.072Z,59.93
2018-12-21T06:57:48.611Z,57.83
2018-12-21T07:00:18.114Z,56.87
2018-12-21T07:02:47.555Z,52.47
2018-12-21T07:05:17.018Z,56.63
2018-12-21T07:07:47.370Z,55.37
2018-12-21T07:10:16.761Z,52.73
2018-12-21T07:12:46.981Z,52.43
2018-12-21T07:15:17.548Z,49.67
2018-12-21T07:17:46.936Z,50.60
2018-12-21T07:20:16.461Z,55.70
2018-12-21T07:22:46.387Z,53.33
2018-12-21T07:25:15.928Z,56.53
2018-12-21T07:27:45.479Z,55.27
2018-12-21T07:30:14.911Z,55.07
2018-12-21T07:32:44.358Z,56.23
2018-12-21T07:35:16.676Z,53.50
2018-12-21T07:37:46.315Z,51.87
2018-12-21T07:40:16.383Z,54.73
2018-12-21T07:42:45.757Z,55.13
2018-12-21T07:45:15.101Z,48.50
2018-12-21T07:47:44.515Z,55.33
2018-12-21T07:50:14.045Z,54.03
2018-12-21T07:52:43.561Z,52.37
2018-12-21T07:55:13.335Z,55.13
2018-12-21T07:57:42.860Z,51.20
2018-12-21T08:00:12.903Z,55.00
2018-12-21T08:02:42.343Z,52.07
2018-12-21T08:05:11.751Z,49.73
2018-12-21T08:07:41.196Z,48.87
2018-12-21T08:10:15.983Z,48.07
2018-12-21T08:12:45.388Z,48.00
2018-12-21T08:15:14.820Z,46.40
2018-12-21T08:17:44.323Z,49.07
2018-12-21T08:20:13.723Z,42.43
2018-12-21T08:22:43.373Z,42.70
2018-12-21T08:25:12.771Z,42.77
2018-12-21T08:27:42.307Z,41.23
2018-12-21T08:30:11.848Z,43.43
2018-12-21T08:32:41.351Z,44.70
2018-12-21T08:35:10.882Z,45.93
2018-12-21T08:37:40.207Z,47.13
2018-12-21T08:40:10.432Z,44.60
2018-12-21T08:42:39.803Z,47.83
2018-12-21T08:45:10.677Z,47.77
2018-12-21T08:47:40.058Z,47.37
2018-12-21T08:50:11.250Z,50.33
2018-12-21T08:52:40.898Z,49.67
2018-12-21T08:55:11.913Z,55.50
2018-12-21T08:57:41.724Z,49.50
2018-12-21T09:00:13.210Z,49.83
2018-12-21T09:02:42.716Z,50.47
2018-12-21T09:05:12.292Z,47.73
2018-12-21T09:07:41.828Z,49.77
2018-12-21T09:10:11.738Z,53.33
2018-12-21T09:12:41.290Z,51.77
2018-12-21T09:15:14.877Z,49.83
2018-12-21T09:17:44.173Z,44.80
2018-12-21T09:20:13.711Z,47.87
2018-12-21T09:22:43.220Z,46.33
2018-12-21T09:25:12.719Z,45.40
2018-12-21T09:27:42.248Z,42.47
2018-12-21T09:30:14.088Z,45.57
2018-12-21T09:32:43.624Z,43.37
2018-12-21T09:35:13.032Z,43.90
2018-12-21T09:37:42.698Z,40.37
2018-12-21T09:40:13.008Z,48.13
2018-12-21T09:42:42.564Z,48.20
2018-12-21T09:45:12.243Z,45.73
2018-12-21T09:47:41.784Z,47.13
2018-12-21T09:50:11.659Z,44.93
2018-12-21T09:52:41.264Z,44.93
2018-12-21T09:55:10.791Z,52.23
2018-12-21T09:57:40.211Z,46.73
2018-12-21T10:00:11.894Z,48.70
2018-12-21T10:02:41.868Z,49.17
2018-12-21T10:05:14.611Z,49.03
2018-12-21T10:07:44.238Z,47.87
2018-12-21T10:10:13.767Z,47.00
2018-12-21T10:12:43.215Z,44.90
2018-12-21T10:15:12.600Z,47.13
2018-12-21T10:17:42.147Z,46.70
2018-12-21T10:20:11.655Z,46.10
2018-12-21T10:22:41.225Z,40.47
2018-12-21T10:25:10.743Z,45.90
2018-12-21T10:27:40.118Z,40.73
2018-12-21T10:30:11.024Z,41.23
2018-12-21T10:32:40.611Z,44.43
2018-12-21T10:35:10.136Z,43.00
2018-12-21T10:37:39.645Z,43.07
2018-12-21T10:40:09.726Z,44.60
2018-12-21T10:42:39.167Z,43.83
2018-12-21T10:45:08.832Z,45.07
2018-12-21T10:47:38.380Z,42.07
2018-12-21T10:50:10.711Z,44.83
2018-12-21T10:52:40.151Z,45.00
2018-12-21T10:55:09.652Z,42.23
2018-12-21T10:57:39.157Z,43.17
2018-12-21T11:00:11.056Z,43.40
2018-12-21T11:02:40.532Z,45.00
2018-12-21T11:05:09.992Z,43.20
2018-12-21T11:07:39.510Z,43.93
2018-12-21T11:10:11.007Z,42.07
2018-12-21T11:12:40.427Z,42.00
2018-12-21T11:15:09.972Z,43.20
2018-12-21T11:17:39.475Z,42.90
2018-12-21T11:20:09.490Z,40.73
2018-12-21T11:22:38.995Z,41.73
2018-12-21T11:25:10.383Z,42.37
2018-12-21T11:27:39.706Z,43.60
2018-12-21T11:30:10.023Z,40.23
2018-12-21T11:32:39.402Z,43.20
2018-12-21T11:35:08.732Z,43.53
2018-12-21T11:37:38.134Z,43.27
2018-12-21T11:40:07.576Z,40.27
2018-12-21T11:42:36.976Z,41.07
2018-12-21T11:45:08.269Z,43.43
2018-12-21T11:47:38.071Z,44.00
2018-12-21T11:50:10.499Z,43.17
2018-12-21T11:52:39.943Z,42.47
2018-12-21T11:55:09.406Z,41.23
2018-12-21T11:57:39.423Z,43.07
2018-12-21T12:00:10.831Z,42.80
2018-12-21T12:02:40.345Z,41.47
2018-12-21T12:05:09.788Z,39.60
2018-12-21T12:07:39.545Z,37.23
2018-12-21T12:10:09.812Z,38.17
2018-12-21T12:12:39.793Z,38.93
2018-12-21T12:15:11.008Z,38.57
2018-12-21T12:17:41.897Z,38.13
2018-12-21T12:20:12.103Z,36.87
2018-12-21T12:22:42.760Z,35.90
2018-12-21T12:25:13.664Z,36.37
2018-12-21T12:27:45.490Z,34.73
2018-12-21T12:30:15.022Z,36.67
2018-12-21T12:32:44.487Z,37.27
2018-12-21T12:35:13.887Z,39.73
2018-12-21T12:37:43.230Z,37.53
2018-12-21T12:40:12.546Z,34.73
2018-12-21T12:42:42.042Z,36.10
2018-12-21T12:45:11.583Z,34.40
2018-12-21T12:47:40.982Z,37.27
2018-12-21T12:50:10.412Z,36.77
2018-12-21T12:52:39.858Z,38.07
2018-12-21T12:55:09.453Z,35.97
2018-12-21T12:57:38.916Z,37.50
2018-12-21T13:00:10.665Z,35.03
2018-12-21T13:02:40.164Z,35.40
2018-12-21T13:05:09.887Z,35.77
2018-12-21T13:07:39.386Z,33.77
2018-12-21T13:10:10.404Z,35.23
2018-12-21T13:12:39.919Z,35.70
2018-12-21T13:15:11.797Z,34.10
2018-12-21T13:17:41.279Z,34.00
2018-12-21T13:20:11.488Z,34.17
2018-12-21T13:22:40.792Z,33.53
2018-12-21T13:25:11.572Z,32.87
2018-12-21T13:27:41.449Z,32.27
2018-12-21T13:30:12.069Z,33.87
2018-12-21T13:32:41.703Z,32.93
2018-12-21T13:35:11.119Z,33.33
2018-12-21T13:37:40.587Z,35.43
2018-12-21T13:40:12.392Z,33.77
2018-12-21T13:42:41.925Z,33.20
2018-12-21T13:45:11.999Z,32.87
2018-12-21T13:47:41.427Z,35.83
2018-12-21T13:50:13.488Z,37.60
2018-12-21T13:52:43.013Z,36.73
2018-12-21T13:55:20.044Z,35.80
2018-12-21T13:57:44.274Z,35.53
2018-12-21T14:00:13.696Z,32.57
2018-12-21T14:02:43.220Z,34.80
2018-12-21T14:05:13.660Z,32.30
2018-12-21T14:07:43.340Z,31.97
2018-12-21T14:10:13.618Z,30.27
2018-12-21T14:12:43.070Z,33.00
2018-12-21T14:15:12.584Z,32.03
2018-12-21T14:17:42.088Z,30.07
2018-12-21T14:20:12.765Z,31.10
2018-12-21T14:22:42.140Z,31.73
2018-12-21T14:25:11.724Z,31.87
2018-12-21T14:27:41.263Z,30.27
2018-12-21T14:30:11.083Z,31.03
2018-12-21T14:32:40.537Z,30.27
2018-12-21T14:35:09.816Z,27.00
2018-12-21T14:37:39.352Z,28.53
2018-12-21T14:40:08.776Z,28.60
2018-12-21T14:42:38.219Z,27.07
2018-12-21T14:45:07.929Z,28.73
2018-12-21T14:47:37.778Z,27.93
2018-12-21T14:50:08.620Z,26.50
2018-12-21T14:52:38.178Z,25.70
2018-12-21T14:55:08.140Z,25.77
2018-12-21T14:57:37.691Z,27.07
2018-12-21T15:00:13.745Z,26.17
2018-12-21T15:02:44.442Z,23.90
2018-12-21T15:05:14.090Z,24.13
2018-12-21T15:07:44.874Z,24.50
2018-12-21T15:10:16.081Z,27.13
2018-12-21T15:12:45.995Z,23.70
2018-12-21T15:15:15.190Z,24.83
2018-12-21T15:17:44.491Z,23.93
2018-12-21T15:20:13.696Z,24.43
2018-12-21T15:22:43.284Z,25.87
2018-12-21T15:25:12.486Z,26.13
2018-12-21T15:27:41.995Z,26.60
2018-12-21T15:30:12.264Z,25.60
2018-12-21T15:32:41.825Z,23.23
2018-12-21T15:35:11.192Z,25.23
2018-12-21T15:37:40.784Z,25.77
2018-12-21T15:40:10.213Z,24.60
2018-12-21T15:42:39.672Z,28.00
2018-12-21T15:45:09.244Z,25.50
2018-12-21T15:47:38.612Z,26.53
2018-12-21T15:50:10.584Z,27.67
2018-12-21T15:52:40.836Z,29.93
2018-12-21T15:55:10.304Z,29.07
2018-12-21T15:57:39.782Z,29.93
2018-12-21T16:00:12.243Z,31.80
2018-12-21T16:02:43.848Z,30.50
2018-12-21T16:05:13.236Z,30.07
2018-12-21T16:07:44.119Z,29.50
2018-12-21T16:10:15.035Z,27.03
2018-12-21T16:12:44.392Z,32.10
2018-12-21T16:15:14.043Z,28.83
2018-12-21T16:17:46.145Z,30.40
2018-12-21T16:20:17.923Z,32.00
2018-12-21T16:22:47.327Z,28.23
2018-12-21T16:25:16.723Z,31.03
2018-12-21T16:27:46.060Z,26.97
2018-12-21T16:30:15.602Z,28.30
2018-12-21T16:32:45.119Z,30.80
2018-12-21T16:35:14.739Z,29.03
2018-12-21T16:37:44.233Z,32.10
2018-12-21T16:40:14.447Z,28.67
2018-12-21T16:42:44.193Z,28.43
2018-12-21T16:45:13.704Z,31.00
2018-12-21T16:47:47.513Z,32.23
2018-12-21T16:50:17.019Z,30.77
2018-12-21T16:52:47.420Z,33.43
2018-12-21T16:55:16.820Z,34.60
2018-12-21T16:57:46.278Z,31.30
2018-12-21T17:00:16.039Z,32.90
2018-12-21T17:02:45.523Z,34.53
2018-12-21T17:05:15.039Z,32.00
2018-12-21T17:07:44.451Z,32.40
2018-12-21T17:10:18.920Z,36.10
2018-12-21T17:12:48.477Z,35.07
2018-12-21T17:15:17.982Z,35.33
2018-12-21T17:17:48.307Z,37.13
2018-12-21T17:20:17.926Z,35.40
2018-12-21T17:22:47.344Z,38.77
2018-12-21T17:25:16.848Z,37.07
2018-12-21T17:27:46.412Z,36.73
2018-12-21T17:30:15.946Z,38.70
2018-12-21T17:32:45.479Z,36.60
2018-12-21T17:35:15.025Z,37.80
2018-12-21T17:37:44.624Z,36.80
2018-12-21T17:40:14.377Z,40.17
2018-12-21T17:42:43.980Z,41.10
2018-12-21T17:45:14.427Z,41.97
2018-12-21T17:47:43.980Z,37.30
2018-12-21T17:50:13.387Z,42.37
2018-12-21T17:52:42.899Z,42.83
2018-12-21T17:55:12.557Z,40.93
2018-12-21T17:57:41.991Z,40.37
2018-12-21T18:00:18.674Z,40.13
2018-12-21T18:02:50.815Z,37.87
2018-12-21T18:05:20.547Z,40.00
2018-12-21T18:07:50.035Z,40.27
2018-12-21T18:10:19.470Z,39.23
2018-12-21T18:12:48.868Z,40.03
2018-12-21T18:15:18.223Z,39.13
2018-12-21T18:17:47.625Z,41.43
2018-12-21T18:20:17.055Z,42.03
2018-12-21T18:22:46.664Z,45.47
2018-12-21T18:25:20.945Z,43.57
2018-12-21T18:27:52.735Z,40.47
2018-12-21T18:30:30.413Z,39.90
2018-12-21T18:33:10.523Z,43.80
2018-12-21T18:35:35.905Z,41.17
2018-12-21T18:38:08.571Z,43.83
2018-12-21T18:40:38.250Z,40.30
2018-12-21T18:43:08.774Z,41.23
2018-12-21T18:45:38.138Z,42.80
2018-12-21T18:48:07.665Z,43.77
2018-12-21T18:50:37.225Z,45.73
2018-12-21T18:53:10.123Z,47.60
2018-12-21T18:55:39.525Z,50.20
2018-12-21T18:58:09.078Z,46.80
2018-12-21T19:00:38.614Z,48.97
2018-12-21T19:03:08.156Z,48.47
2018-12-21T19:05:37.552Z,47.00
2018-12-21T19:08:06.979Z,48.07
2018-12-21T19:10:36.463Z,50.60
2018-12-21T19:13:06.138Z,46.93
2018-12-21T19:15:35.545Z,48.67
2018-12-21T19:18:05.183Z,51.33
2018-12-21T19:20:34.572Z,54.10
2018-12-21T19:23:04.063Z,56.07
2018-12-21T19:25:33.503Z,53.30
2018-12-21T19:28:02.826Z,48.30
2018-12-21T19:30:32.328Z,50.93
2018-12-21T19:33:01.770Z,51.23
2018-12-21T19:35:31.271Z,51.87
2018-12-21T19:38:00.682Z,47.40
2018-12-21T19:40:32.226Z,45.40
2018-12-21T19:43:01.834Z,45.20
2018-12-21T19:45:31.258Z,45.00
2018-12-21T19:48:00.871Z,44.47
2018-12-21T19:50:30.972Z,45.07
2018-12-21T19:53:02.604Z,46.70
2018-12-21T19:55:51.983Z,46.87
2018-12-21T19:58:21.589Z,47.97
2018-12-21T20:00:51.198Z,44.57
2018-12-21T20:03:20.621Z,42.50
2018-12-21T20:05:50.132Z,46.87
2018-12-21T20:08:20.084Z,41.53
2018-12-21T20:10:51.011Z,45.43
2018-12-21T20:13:20.395Z,44.43
2018-12-21T20:15:49.797Z,45.57
2018-12-21T20:18:19.131Z,46.60
2018-12-21T20:20:48.510Z,46.90
2018-12-21T20:23:17.982Z,46.67
2018-12-21T20:25:47.476Z,50.47
2018-12-21T20:28:16.907Z,47.67
2018-12-21T20:30:46.458Z,50.60
2018-12-21T20:33:15.747Z,44.30
2018-12-21T20:35:45.344Z,46.40
2018-12-21T20:38:21.329Z,46.30
2018-12-21T20:40:46.424Z,47.70
2018-12-21T20:43:16.048Z,47.33
2018-12-21T20:45:45.557Z,47.77
2018-12-21T20:48:15.392Z,42.33
2018-12-21T20:50:44.789Z,42.20
2018-12-21T20:53:14.111Z,43.40
2018-12-21T20:55:43.672Z,42.67
2018-12-21T20:58:26.455Z,45.67
2018-12-21T21:00:55.991Z,43.23
2018-12-21T21:03:25.695Z,44.10
2018-12-21T21:05:55.264Z,42.87
2018-12-21T21:08:25.592Z,42.00
2018-12-21T21:10:56.127Z,40.37
2018-12-21T21:13:25.679Z,44.80
2018-12-21T21:15:55.108Z,43.77
2018-12-21T21:18:24.539Z,43.63
2018-12-21T21:20:54.080Z,44.57
2018-12-21T21:23:23.684Z,47.17
2018-12-21T21:25:53.104Z,42.30
2018-12-21T21:28:22.791Z,43.10
2018-12-21T21:30:52.404Z,42.63
2018-12-21T21:33:21.907Z,42.97
2018-12-21T21:35:51.414Z,42.57
2018-12-21T21:38:20.947Z,43.40
2018-12-21T21:40:50.376Z,47.07
2018-12-21T21:43:20.883Z,43.97
2018-12-21T21:45:50.418Z,45.23
2018-12-21T21:48:19.960Z,46.03
2018-12-21T21:50:49.563Z,48.53
2018-12-21T21:53:19.080Z,45.57
2018-12-21T21:55:48.488Z,45.47
2018-12-21T21:58:18.076Z,43.70
2018-12-21T22:00:47.619Z,50.27
2018-12-21T22:03:17.567Z,47.80
2018-12-21T22:05:46.868Z,48.80
2018-12-21T22:08:16.163Z,45.90
2018-12-21T22:10:45.575Z,47.23
2018-12-21T22:13:15.100Z,49.13
2018-12-21T22:15:44.646Z,45.53
2018-12-21T22:18:17.501Z,47.73
2018-12-21T22:20:47.064Z,43.17
2018-12-21T22:23:16.603Z,42.10
2018-12-21T22:25:53.281Z,45.50
2018-12-21T22:28:17.679Z,44.27
2018-12-21T22:30:47.184Z,42.73
2018-12-21T22:33:16.669Z,41.47
2018-12-21T22:35:46.103Z,36.73
2018-12-21T22:38:15.487Z,43.53
2018-12-21T22:40:45.019Z,38.70
2018-12-21T22:43:14.347Z,39.00
2018-12-21T22:45:44.054Z,38.40
2018-12-21T22:48:13.490Z,39.40
2018-12-21T22:50:43.120Z,37.43
2018-12-21T22:53:12.618Z,39.93
2018-12-21T22:55:42.072Z,39.13
2018-12-21T22:58:11.606Z,38.03
2018-12-21T23:00:41.364Z,39.67
2018-12-21T23:03:10.757Z,39.60
2018-12-21T23:05:40.064Z,33.70
2018-12-21T23:08:09.605Z,35.87
2018-12-21T23:10:38.895Z,37.20
2018-12-21T23:13:08.344Z,36.43
2018-12-21T23:15:37.972Z,38.43
2018-12-21T23:18:07.471Z,35.77
2018-12-21T23:20:37.377Z,34.57
2018-12-21T23:23:06.874Z,37.50
2018-12-21T23:25:36.284Z,35.73
2018-12-21T23:28:05.631Z,35.50
2018-12-21T23:30:35.072Z,37.17
2018-12-21T23:33:06.011Z,34.80
2018-12-21T23:35:35.854Z,37.17
2018-12-21T23:38:05.340Z,38.03
2018-12-21T23:40:34.927Z,34.87
2018-12-21T23:43:04.464Z,37.13
2018-12-21T23:45:33.975Z,37.33
2018-12-21T23:48:03.308Z,36.90
2018-12-21T23:50:32.672Z,37.30
2018-12-21T23:53:02.099Z,38.33
2018-12-21T23:55:31.552Z,39.40
2018-12-21T23:58:01.043Z,38.43
